• Join FlightAware (Why Join?)
  • Login
  • US Flag 
08:26AM EST


 

Airport Tracker/Info


-or-


 

Live Flight TrackerFlight Track Log ✈ N913CS ✈ 11-Mar-2014 ✈ KCID - KPIE

Flight Track Log - Related Links

Times and Time Zones

All times are in EDT time to prevent confusion due to time zone crossing. See the N913CS flight status page for this flight to view local times or setup timezone preferences in your user account.

Time Position Orientation Groundspeed Altitude Reporting Facility
EDT Latitude Longitude Course Direction KTS MPH feet Rate Location/Type
07:12AM 41.8208 -91.6406 154° Southeast 234 269 4,100  Level Chicago Center
07:13AM 41.7539 -91.5958 154° Southeast 271 312 7,300 2,520 Climbing Chicago Center
07:14AM 41.6825 -91.5361 148° Southeast 302 348 9,300 1,320 Climbing Chicago Center
07:15AM 41.5964 -91.4717 151° Southeast 350 403 10,000 300 Climbing Chicago Center
07:16AM 41.5069 -91.4022 150° Southeast 372 428 10,000 480 Level Chicago Center
07:18AM 41.4194 -91.3358 150° Southeast 368 423 11,000 1,500 Climbing Chicago Center
07:19AM 41.3183 -91.2597 151° Southeast 370 426 13,100 1,920 Climbing Chicago Center
07:20AM 41.2261 -91.1897 150° Southeast 379 436 15,000 1,860 Climbing Chicago Center
07:21AM 41.1331 -91.1214 151° Southeast 383 441 17,000 1,680 Climbing Chicago Center
07:22AM 41.0394 -91.0503 150° Southeast 387 445 18,500 1,320 Climbing Chicago Center
07:23AM 40.9400 -90.9775 151° Southeast 405 466 19,700 1,080 Climbing Chicago Center
07:24AM 40.8383 -90.9017 151° Southeast 417 480 20,700 1,020 Climbing Chicago Center
07:25AM 40.7317 -90.8242 151° Southeast 434 499 21,800 1,020 Climbing Chicago Center
07:26AM 40.6253 -90.7447 150° Southeast 440 506 22,800 1,020 Climbing Chicago Center
07:27AM 40.5192 -90.6669 151° Southeast 440 506 23,900 1,320 Climbing Chicago Center
07:28AM 40.3925 -90.5739 151° Southeast 436 502 25,500 1,260 Climbing Chicago Center
07:28AM 40.3286 -90.5286 152° Southeast 437 503 26,100 960 Climbing Kansas City Center
07:29AM 40.2233 -90.4522 151° Southeast 437 503 27,200 1,020 Climbing Kansas City Center
07:30AM 40.1169 -90.3756 151° Southeast 437 503 28,200 960 Climbing Kansas City Center
07:31AM 40.0100 -90.2981 151° Southeast 437 503 29,200 1,080 Climbing Kansas City Center
07:32AM 39.8808 -90.2044 151° Southeast 438 504 30,400 1,140 Climbing Kansas City Center
07:33AM 39.7722 -90.1264 151° Southeast 443 510 31,500 1,020 Climbing Kansas City Center
07:34AM 39.6608 -90.0469 151° Southeast 445 512 32,500 1,020 Climbing Kansas City Center
07:36AM 39.5522 -89.9692 151° Southeast 446 513 33,600 1,020 Climbing Kansas City Center
07:37AM 39.4431 -89.8922 151° Southeast 446 513 34,600 660 Climbing Kansas City Center
07:38AM 39.3361 -89.8164 151° Southeast 442 509 35,000 180 Climbing Kansas City Center
07:39AM 39.2267 -89.7406 152° Southeast 442 509 35,000  Level Kansas City Center
07:40AM 39.1189 -89.6650 151° Southeast 442 509 35,000 240 Level Kansas City Center
07:41AM 39.0114 -89.5894 151° Southeast 440 506 35,600 780 Climbing Kansas City Center
07:42AM 38.9053 -89.5161 152° Southeast 437 503 36,600 900 Climbing Kansas City Center
07:43AM 38.7997 -89.4425 151° Southeast 434 499 37,500 900 Climbing Kansas City Center
07:44AM 38.6947 -89.3708 152° Southeast 430 495 38,500 720 Climbing Kansas City Center
07:45AM 38.5739 -89.2881 152° Southeast 430 495 39,000 240 Climbing Kansas City Center
07:46AM 38.4628 -89.2122 152° Southeast 447 514 39,000  Level Kansas City Center
07:47AM 38.3503 -89.1353 152° Southeast 453 521 39,000  Level Kansas City Center
07:48AM 38.2539 -89.0703 152° Southeast 453 521 39,000  Level Kansas City Center
07:49AM 38.1419 -88.9939 152° Southeast 454 522 39,000  Level Kansas City Center
07:50AM 38.0331 -88.9211 152° Southeast 451 519 39,000  Level Kansas City Center
07:51AM 37.9006 -88.8319 152° Southeast 449 517 39,000  Level Kansas City Center
07:52AM 37.8000 -88.7639 152° Southeast 441 507 39,000  Level Kansas City Center
07:53AM 37.7044 -88.6994 152° Southeast 426 490 39,000  Level Kansas City Center
07:54AM 37.5761 -88.6139 152° Southeast 429 494 39,000  Level Kansas City Center
07:54AM 37.5033 -88.5658 152° Southeast 433 498 39,000  Level Memphis Center
07:56AM 37.3947 -88.4939 152° Southeast 435 501 39,000  Level Memphis Center
07:57AM 37.2858 -88.4222 152° Southeast 436 502 39,000  Level Memphis Center
07:58AM 37.1775 -88.3506 152° Southeast 436 502 39,000  Level Memphis Center
07:59AM 37.0692 -88.2803 153° Southeast 437 503 39,000  Level Memphis Center
08:00AM 36.9617 -88.2103 153° Southeast 437 503 39,000  Level Memphis Center
08:01AM 36.8556 -88.1408 152° Southeast 433 498 39,000  Level Memphis Center
08:02AM 36.7436 -88.0669 152° Southeast 432 497 39,000  Level Memphis Center
08:03AM 36.6367 -87.9972 152° Southeast 432 497 39,000  Level Memphis Center
08:04AM 36.5278 -87.9283 153° Southeast 432 497 39,000  Level Memphis Center
08:05AM 36.4197 -87.8572 152° Southeast 432 497 39,000  Level Memphis Center
08:06AM 36.3111 -87.7883 153° Southeast 433 498 39,000  Level Memphis Center
08:07AM 36.2036 -87.7192 153° Southeast 433 498 39,000  Level Memphis Center
08:08AM 36.0769 -87.6389 153° Southeast 433 498 39,000  Level Memphis Center
08:09AM 35.9681 -87.5711 153° Southeast 434 499 39,000  Level Memphis Center
08:10AM 35.8606 -87.5028 153° Southeast 434 499 39,000  Level Memphis Center
08:11AM 35.7528 -87.4353 153° Southeast 433 498 39,000  Level Memphis Center
08:12AM 35.6456 -87.3672 153° Southeast 433 498 39,000  Level Memphis Center
08:13AM 35.5381 -87.3000 153° Southeast 433 498 39,000  Level Memphis Center
08:14AM 35.4306 -87.2328 153° Southeast 433 498 39,000  Level Memphis Center
08:15AM 35.3183 -87.1628 153° Southeast 432 497 39,000  Level Memphis Center
08:16AM 35.2122 -87.0961 153° Southeast 431 496 39,000  Level Memphis Center
08:17AM 35.1061 -87.0292 153° Southeast 431 496 39,000  Level Memphis Center
08:18AM 34.9994 -86.9639 153° Southeast 428 493 39,000  Level Memphis Center
08:19AM 34.8931 -86.8992 153° Southeast 428 493 39,000  Level Memphis Center
08:20AM 34.7867 -86.8331 153° Southeast 428 493 39,000  Level Memphis Center
08:21AM 34.6583 -86.7544 153° Southeast 428 493 39,000  Level Memphis Center
08:22AM 34.6103 -86.7242 153° Southeast 420 483 39,000  Level Atlanta Center
08:23AM 34.5033 -86.6553 152° Southeast 425 489 39,000  Level Atlanta Center
08:24AM 34.3939 -86.5914 154° Southeast 425 489 39,000  Level Atlanta Center
08:25AM 34.2867 -86.5253 153° Southeast 425 489 39,000  Level Atlanta Center
08:26AM 34.1753 -86.4617 155° Southeast 431 496 39,000  Level Atlanta Center
08:27AM 34.0681 -86.3961 153° Southeast 436 502 39,000  Level Atlanta Center
08:28AM 33.9567 -86.3278 153° Southeast 436 502 39,000  Level Atlanta Center
08:29AM 33.8472 -86.2625 154° Southeast 441 507 39,000  Level Atlanta Center
08:30AM 33.7378 -86.1997 154° Southeast 441 507 39,000  Level Atlanta Center
08:31AM 33.6283 -86.1344 154° Southeast 441 507 39,000  Level Atlanta Center
08:32AM 33.5147 -86.0619 152° Southeast 431 496 39,000  Level Atlanta Center
08:33AM 33.4072 -85.9997 154° Southeast 426 490 39,000  Level Atlanta Center
08:34AM 33.2997 -85.9353 153° Southeast 426 490 39,000  Level Atlanta Center
08:35AM 33.1919 -85.8733 154° Southeast 426 490 39,000  Level Atlanta Center
08:36AM 33.0947 -85.8167 154° Southeast 426 490 39,000  Level Atlanta Center
08:37AM 32.9850 -85.7525 154° Southeast 426 490 39,000  Level Atlanta Center
08:38AM 32.8772 -85.6886 154° Southeast 426 490 39,000  Level Atlanta Center
08:39AM 32.7697 -85.6247 153° Southeast 431 496 39,000  Level Atlanta Center
08:40AM 32.6619 -85.5611 154° Southeast 431 496 39,000  Level Atlanta Center
08:41AM 32.5561 -85.5028 155° Southeast 431 496 39,000  Level Atlanta Center
08:42AM 32.4464 -85.4394 154° Southeast 431 496 39,000  Level Atlanta Center
08:43AM 32.3406 -85.3786 154° Southeast 431 496 39,000  Level Atlanta Center
08:44AM 32.2325 -85.3156 154° Southeast 431 496 39,000  Level Atlanta Center
08:45AM 32.0347 -85.2036 154° Southeast 417 480 39,000 -60 Level Jacksonville Center
08:46AM 31.9253 -85.1419 154° Southeast 422 486 38,900 -360 Descending Jacksonville Center
08:47AM 31.8261 -85.0883 155° Southeast 427 491 38,300 -600 Descending Jacksonville Center
08:48AM 31.7164 -85.0272 155° Southeast 432 497 37,700 -660 Descending Jacksonville Center
08:49AM 31.6067 -84.9636 154° Southeast 440 506 37,000 -360 Descending Jacksonville Center
08:50AM 31.4972 -84.9003 154° Southeast 440 506 37,000  Level Jacksonville Center
08:51AM 31.3853 -84.8369 154° Southeast 440 506 37,000  Level Jacksonville Center
08:52AM 31.2736 -84.7764 155° Southeast 440 506 37,000  Level Jacksonville Center
08:53AM 31.1639 -84.7136 154° Southeast 440 506 37,000  Level Jacksonville Center
08:54AM 31.0539 -84.6531 155° Southeast 440 506 37,000  Level Jacksonville Center
08:55AM 30.9442 -84.5906 154° Southeast 440 506 37,000  Level Jacksonville Center
08:56AM 30.8322 -84.5281 154° Southeast 440 506 37,000  Level Jacksonville Center
08:57AM 30.7222 -84.4706 156° South 440 506 37,000  Level Jacksonville Center
08:58AM 30.6125 -84.4083 154° Southeast 440 506 37,000  Level Jacksonville Center
08:59AM 30.4942 -84.3342 152° Southeast 440 506 37,000  Level Jacksonville Center
09:00AM 30.3844 -84.2628 151° Southeast 445 512 37,000  Level Jacksonville Center
09:01AM 30.2767 -84.1914 150° Southeast 445 512 37,000  Level Jacksonville Center
09:02AM 30.1853 -84.1325 151° Southeast 445 512 37,000 -480 Level Jacksonville Center
09:03AM 30.0775 -84.0617 150° Southeast 440 506 36,100 -1,140 Descending Jacksonville Center
09:04AM 29.9653 -83.9906 151° Southeast 445 512 34,800 -1,260 Descending Jacksonville Center
09:05AM 29.8594 -83.9225 151° Southeast 445 512 33,600 -1,260 Descending Jacksonville Center
09:06AM 29.7533 -83.8542 151° Southeast 445 512 32,300 -1,320 Descending Jacksonville Center
09:07AM 29.6475 -83.7839 150° Southeast 440 506 31,000 -1,380 Descending Jacksonville Center
09:08AM 29.5372 -83.7136 151° Southeast 440 506 29,600 -1,500 Descending Jacksonville Center
09:09AM 29.4272 -83.6436 151° Southeast 445 512 28,100 -1,320 Descending Jacksonville Center
09:10AM 29.3189 -83.5761 151° Southeast 450 518 27,000 -840 Descending Jacksonville Center
09:11AM 29.1983 -83.4967 150° Southeast 457 526 26,500 -900 Descending Jacksonville Center
09:12AM 29.0900 -83.4297 152° Southeast 451 519 25,300 -1,260 Descending Jacksonville Center
09:13AM 28.9858 -83.3603 150° Southeast 446 513 24,000 -1,740 Descending Jacksonville Center
09:14AM 28.8778 -83.2956 152° Southeast 446 513 21,900 -2,220 Descending Jacksonville Center
09:15AM 28.7778 -83.2289 150° Southeast 434 499 19,600 -2,520 Descending Jacksonville Center
09:16AM 28.6839 -83.1694 151° Southeast 409 471 16,900 -2,580 Descending Jacksonville Center
09:17AM 28.6000 -83.1167 151° Southeast 369 425 14,700 -2,400 Descending Tampa TRACON
09:18AM 28.5167 -83.0667 152° Southeast 370 426 12,600 -2,160 Descending Tampa TRACON
09:19AM 28.4333 -83.0167 152° Southeast 357 411 10,600 -1,620 Descending Tampa TRACON
09:20AM 28.3667 -82.9667 147° Southeast 306 352 9,600 -1,560 Descending Tampa TRACON
09:21AM 28.2833 -82.9167 152° Southeast 292 336 7,700 -1,980 Descending Tampa TRACON
09:22AM 28.2333 -82.8667 139° Southeast 275 316 5,700 -2,040 Descending Tampa TRACON
09:23AM 28.1667 -82.8333 156° South 243 280 3,700 -1,620 Descending Tampa TRACON
09:24AM 28.1167 -82.7833 139° Southeast 227 261 2,500 -660 Descending Tampa TRACON
09:25AM 28.0667 -82.7500 150° Southeast 232 267 2,400 -300 Descending Tampa TRACON
09:26AM 28.0167 -82.7167 150° Southeast 177 204 2,000 -720 Descending Tampa TRACON
09:27AM 27.9667 -82.7000 164° South 142 163 900 -900 Descending Tampa TRACON
09:28AM 27.9333 -82.7000 180° South 122 140 400 -660 Descending Tampa TRACON